createdAt,value
2023-01-11T00:01:12.213Z,2.53
2023-01-11T00:03:40.061Z,2.15
2023-01-11T00:06:10.612Z,2.42
2023-01-11T00:08:38.700Z,2.10
2023-01-11T00:11:13.769Z,2.67
2023-01-11T00:13:41.750Z,2.65
2023-01-11T00:16:10.511Z,1.90
2023-01-11T00:18:38.752Z,2.33
2023-01-11T00:21:07.625Z,1.92
2023-01-11T00:23:38.497Z,2.00
2023-01-11T00:26:07.393Z,2.15
2023-01-11T00:28:35.723Z,3.08
2023-01-11T00:31:03.823Z,3.08
2023-01-11T00:33:31.754Z,2.40
2023-01-11T00:35:59.777Z,2.00
2023-01-11T00:38:47.077Z,2.15
2023-01-11T00:41:40.360Z,2.88
2023-01-11T00:44:27.832Z,2.50
2023-01-11T00:47:12.893Z,2.17
2023-01-11T00:49:40.923Z,1.85
2023-01-11T00:52:10.025Z,2.05
2023-01-11T00:54:38.570Z,1.85
2023-01-11T00:57:08.604Z,2.03
2023-01-11T00:59:36.632Z,3.35
2023-01-11T01:02:04.764Z,2.00
2023-01-11T01:04:33.007Z,2.33
2023-01-11T01:07:00.868Z,2.13
2023-01-11T01:09:29.041Z,2.58
2023-01-11T01:11:56.923Z,2.38
2023-01-11T01:14:29.789Z,2.05
2023-01-11T01:16:59.687Z,2.20
2023-01-11T01:19:28.794Z,1.90
2023-01-11T01:21:57.862Z,2.40
2023-01-11T01:24:28.259Z,1.60
2023-01-11T01:26:56.328Z,1.83
2023-01-11T01:29:26.283Z,1.65
2023-01-11T01:31:54.245Z,1.92
2023-01-11T01:34:22.164Z,2.38
2023-01-11T01:36:50.140Z,2.30
2023-01-11T01:39:17.999Z,1.95
2023-01-11T01:41:45.870Z,1.80
2023-01-11T01:44:55.686Z,2.40
2023-01-11T01:47:28.482Z,2.13
2023-01-11T01:49:58.598Z,2.78
2023-01-11T01:52:29.292Z,1.90
2023-01-11T01:55:01.387Z,2.13
2023-01-11T01:57:35.438Z,1.73
2023-01-11T02:00:07.803Z,1.83
2023-01-11T02:02:38.244Z,2.00
2023-01-11T02:05:08.134Z,2.10
2023-01-11T02:07:39.534Z,1.60
2023-01-11T02:10:10.341Z,1.98
2023-01-11T02:12:41.614Z,1.65
2023-01-11T02:15:13.010Z,2.25
2023-01-11T02:17:40.951Z,1.83
2023-01-11T02:20:23.388Z,1.42
2023-01-11T02:23:21.269Z,1.58
2023-01-11T02:26:32.489Z,1.45
2023-01-11T02:29:10.056Z,1.67
2023-01-11T02:31:45.762Z,1.95
2023-01-11T02:34:27.852Z,1.67
2023-01-11T02:37:09.072Z,1.77
2023-01-11T02:39:46.982Z,1.50
2023-01-11T02:42:39.087Z,1.80
2023-01-11T02:45:18.845Z,1.30
2023-01-11T02:47:52.371Z,1.42
2023-01-11T02:50:24.694Z,1.27
2023-01-11T02:52:58.823Z,1.40
2023-01-11T02:55:30.444Z,1.70
2023-01-11T02:58:02.317Z,1.70
2023-01-11T03:00:31.943Z,1.80
2023-01-11T03:03:13.672Z,1.50
2023-01-11T03:05:48.100Z,1.45
2023-01-11T03:08:45.143Z,1.88
2023-01-11T03:11:36.887Z,1.55
2023-01-11T03:14:11.152Z,1.33
2023-01-11T03:16:50.627Z,1.55
2023-01-11T03:19:29.229Z,1.40
2023-01-11T03:22:02.853Z,1.90
2023-01-11T03:24:34.326Z,1.80
2023-01-11T03:27:23.141Z,1.65
2023-01-11T03:29:55.455Z,1.50
2023-01-11T03:32:37.359Z,1.35
2023-01-11T03:35:25.368Z,1.70
2023-01-11T03:37:58.834Z,2.00
2023-01-11T03:40:31.566Z,1.80
2023-01-11T03:43:14.769Z,1.52
2023-01-11T03:45:47.757Z,1.77
2023-01-11T03:48:20.920Z,1.50
2023-01-11T03:50:52.059Z,1.23
2023-01-11T03:53:24.198Z,1.67
2023-01-11T03:55:56.933Z,1.85
2023-01-11T03:58:27.184Z,1.80
2023-01-11T04:00:57.900Z,1.60
2023-01-11T04:03:28.237Z,1.73
2023-01-11T04:06:00.657Z,1.40
2023-01-11T04:08:28.680Z,1.60
2023-01-11T04:10:56.752Z,1.80
2023-01-11T04:13:24.645Z,1.90
2023-01-11T04:15:53.859Z,1.30
2023-01-11T04:18:21.735Z,1.40
2023-01-11T04:20:50.991Z,1.38
2023-01-11T04:23:18.907Z,1.50
2023-01-11T04:25:48.077Z,1.45
2023-01-11T04:28:16.117Z,1.27
2023-01-11T04:30:44.047Z,1.35
2023-01-11T04:33:13.261Z,1.35
2023-01-11T04:35:41.326Z,1.83
2023-01-11T04:38:10.583Z,1.30
2023-01-11T04:40:38.513Z,1.30
2023-01-11T04:43:05.442Z,1.48
2023-01-11T04:45:33.427Z,1.58
2023-01-11T04:48:01.341Z,1.55
2023-01-11T04:50:29.244Z,1.10
2023-01-11T04:52:59.162Z,1.30
2023-01-11T04:55:28.485Z,1.67
2023-01-11T04:57:56.407Z,1.55
2023-01-11T05:00:24.418Z,1.58
2023-01-11T05:02:52.327Z,1.65
2023-01-11T05:05:20.252Z,1.27
2023-01-11T05:07:49.604Z,1.85
2023-01-11T05:10:20.736Z,1.98
2023-01-11T05:12:50.211Z,1.95
2023-01-11T05:15:18.148Z,1.40
2023-01-11T05:17:46.021Z,1.50
2023-01-11T05:20:14.352Z,1.70
2023-01-11T05:22:42.372Z,1.50
2023-01-11T05:25:10.705Z,1.60
2023-01-11T05:27:38.533Z,1.40
2023-01-11T05:30:09.945Z,1.38
2023-01-11T05:32:37.881Z,2.10
2023-01-11T05:35:09.978Z,1.45
2023-01-11T05:37:38.064Z,1.20
2023-01-11T05:40:07.151Z,1.33
2023-01-11T05:42:35.015Z,1.42
2023-01-11T05:45:20.296Z,1.30
2023-01-11T05:47:49.547Z,1.50
2023-01-11T05:50:17.782Z,1.20
2023-01-11T05:52:45.646Z,1.40
2023-01-11T05:55:13.515Z,1.42
2023-01-11T05:57:42.168Z,1.40
2023-01-11T06:00:12.083Z,1.02
2023-01-11T06:02:40.802Z,1.02
2023-01-11T06:05:11.219Z,1.40
2023-01-11T06:07:40.091Z,1.50
2023-01-11T06:10:09.557Z,1.50
2023-01-11T06:12:37.444Z,1.15
2023-01-11T06:15:06.004Z,1.40
2023-01-11T06:17:33.869Z,1.55
2023-01-11T06:20:01.688Z,1.70
2023-01-11T06:22:30.847Z,1.77
2023-01-11T06:24:58.657Z,1.30
2023-01-11T06:27:26.599Z,1.48
2023-01-11T06:29:54.456Z,1.10
2023-01-11T06:32:22.319Z,1.40
2023-01-11T06:34:50.191Z,1.70
2023-01-11T06:37:18.023Z,1.20
2023-01-11T06:39:47.295Z,1.20
2023-01-11T06:42:15.148Z,1.05
2023-01-11T06:44:43.057Z,1.35
2023-01-11T06:47:10.900Z,1.13
2023-01-11T06:49:38.836Z,1.42
2023-01-11T06:52:06.738Z,1.20
2023-01-11T06:54:34.643Z,1.20
2023-01-11T06:57:03.915Z,1.50
2023-01-11T06:59:31.804Z,1.30
2023-01-11T07:01:59.888Z,1.58
2023-01-11T07:04:27.754Z,1.13
2023-01-11T07:06:56.336Z,1.38
2023-01-11T07:09:24.201Z,1.30
2023-01-11T07:11:52.124Z,1.20
2023-01-11T07:14:22.126Z,1.30
2023-01-11T07:16:50.050Z,1.30
2023-01-11T07:19:18.545Z,1.10
2023-01-11T07:21:46.427Z,1.70
2023-01-11T07:24:15.571Z,1.40
2023-01-11T07:26:43.799Z,1.40
2023-01-11T07:29:12.358Z,1.17
2023-01-11T07:31:41.654Z,0.98
2023-01-11T07:34:09.530Z,1.63
2023-01-11T07:36:39.644Z,1.23
2023-01-11T07:39:08.042Z,1.30
2023-01-11T07:41:53.367Z,1.50
2023-01-11T07:44:21.440Z,1.20
2023-01-11T07:46:50.837Z,1.40
2023-01-11T07:49:18.797Z,1.27
2023-01-11T07:51:46.678Z,1.20
2023-01-11T07:54:14.672Z,1.08
2023-01-11T07:56:42.501Z,1.17
2023-01-11T07:59:10.761Z,1.70
2023-01-11T08:01:38.728Z,1.20
2023-01-11T08:04:11.958Z,1.30
2023-01-11T08:06:40.039Z,1.33
2023-01-11T08:09:08.437Z,1.23
2023-01-11T08:11:53.901Z,1.55
2023-01-11T08:14:40.156Z,1.27
2023-01-11T08:17:08.471Z,1.75
2023-01-11T08:19:37.862Z,1.65
2023-01-11T08:22:06.144Z,1.60
2023-01-11T08:24:34.686Z,1.77
2023-01-11T08:27:02.964Z,1.25
2023-01-11T08:29:32.303Z,1.42
2023-01-11T08:32:00.700Z,1.75
2023-01-11T08:34:29.137Z,1.02
2023-01-11T08:36:58.506Z,1.73
2023-01-11T08:39:29.557Z,1.10
2023-01-11T08:41:57.534Z,1.15
2023-01-11T08:44:33.660Z,1.38
2023-01-11T08:47:02.051Z,1.20
2023-01-11T08:49:30.544Z,1.73
2023-01-11T08:51:59.881Z,1.75
2023-01-11T08:54:27.858Z,1.25
2023-01-11T08:56:56.303Z,1.67
2023-01-11T08:59:24.203Z,1.38
2023-01-11T09:01:52.141Z,1.67
2023-01-11T09:04:25.286Z,1.65
2023-01-11T09:06:53.773Z,1.52
2023-01-11T09:09:23.158Z,1.55
2023-01-11T09:11:57.250Z,1.73
2023-01-11T09:14:26.685Z,1.30
2023-01-11T09:16:55.144Z,1.40
2023-01-11T09:19:23.432Z,1.92
2023-01-11T09:21:51.891Z,1.90
2023-01-11T09:24:20.011Z,1.48
2023-01-11T09:26:49.370Z,1.30
2023-01-11T09:29:17.574Z,1.60
2023-01-11T09:31:45.444Z,1.50
2023-01-11T09:34:13.881Z,1.40
2023-01-11T09:36:43.054Z,1.70
2023-01-11T09:39:14.502Z,1.63
2023-01-11T09:42:05.315Z,1.58
2023-01-11T09:44:36.622Z,1.52
2023-01-11T09:47:15.301Z,1.50
2023-01-11T09:49:50.943Z,1.70
2023-01-11T09:52:28.908Z,1.73
2023-01-11T09:54:59.534Z,1.45
2023-01-11T09:57:42.118Z,1.50
2023-01-11T10:00:20.533Z,1.67
2023-01-11T10:03:05.561Z,1.73
2023-01-11T10:05:57.121Z,1.30
2023-01-11T10:18:22.463Z,1.73
2023-01-11T10:18:41.585Z,1.98
2023-01-11T10:20:41.639Z,1.90
2023-01-11T10:23:16.068Z,1.85
2023-01-11T10:25:51.455Z,1.55
2023-01-11T10:28:26.895Z,1.60
2023-01-11T10:31:11.301Z,1.58
2023-01-11T10:34:05.930Z,2.20
2023-01-11T10:36:55.492Z,2.00
2023-01-11T10:39:50.668Z,1.80
2023-01-11T10:42:22.553Z,1.80
2023-01-11T10:45:00.135Z,2.00
2023-01-11T10:47:36.525Z,2.25
2023-01-11T10:50:15.749Z,1.80
2023-01-11T10:52:51.940Z,2.38
2023-01-11T10:55:26.665Z,1.95
2023-01-11T10:58:08.479Z,1.92
2023-01-11T11:00:48.502Z,1.80
2023-01-11T11:03:42.355Z,1.90
2023-01-11T11:08:52.644Z,1.98
2023-01-11T11:11:24.074Z,2.00
2023-01-11T11:13:59.156Z,1.60
2023-01-11T11:16:41.081Z,2.25
2023-01-11T11:19:13.579Z,2.33
2023-01-11T11:21:47.537Z,1.90
2023-01-11T11:24:23.698Z,2.17
2023-01-11T11:26:58.467Z,2.00
2023-01-11T11:29:30.602Z,1.88
2023-01-11T11:32:01.185Z,2.00
2023-01-11T11:34:31.032Z,1.85
2023-01-11T11:37:01.839Z,2.00
2023-01-11T11:39:32.053Z,1.77
2023-01-11T11:42:08.137Z,1.85
2023-01-11T11:44:36.324Z,2.03
2023-01-11T11:47:05.574Z,1.88
2023-01-11T11:49:36.088Z,2.47
2023-01-11T11:52:06.561Z,2.30
2023-01-11T11:54:38.009Z,2.10
2023-01-11T11:57:16.228Z,1.98
2023-01-11T11:59:47.533Z,2.20
2023-01-11T12:02:25.203Z,1.85
2023-01-11T12:04:56.454Z,1.80
2023-01-11T12:07:27.771Z,2.05
2023-01-11T12:09:59.833Z,2.15
2023-01-11T12:12:29.664Z,1.77
2023-01-11T12:15:09.384Z,2.30
2023-01-11T12:17:37.999Z,1.92
2023-01-11T12:20:31.454Z,2.00
2023-01-11T12:23:16.866Z,1.67
2023-01-11T12:26:08.088Z,2.33
2023-01-11T12:29:03.111Z,2.20
2023-01-11T12:31:41.448Z,1.73
2023-01-11T12:34:23.114Z,2.15
2023-01-11T12:37:03.648Z,1.90
2023-01-11T12:39:39.853Z,1.85
2023-01-11T12:42:33.208Z,2.17
2023-01-11T12:45:16.997Z,1.77
2023-01-11T12:48:13.535Z,1.55
2023-01-11T12:50:54.451Z,1.95
2023-01-11T12:53:36.669Z,1.70
2023-01-11T12:56:34.373Z,1.88
2023-01-11T12:59:09.462Z,1.73
2023-01-11T13:01:50.395Z,1.95
2023-01-11T13:04:48.395Z,2.25
2023-01-11T13:07:28.866Z,2.00
2023-01-11T13:10:10.779Z,2.03
2023-01-11T13:12:45.785Z,1.80
2023-01-11T13:15:35.502Z,1.85
2023-01-11T13:18:13.390Z,1.70
2023-01-11T13:21:00.815Z,1.88
2023-01-11T13:23:39.129Z,1.88
2023-01-11T13:26:17.670Z,1.80
2023-01-11T13:28:49.829Z,1.70
2023-01-11T13:31:18.587Z,1.55
2023-01-11T13:33:50.655Z,1.70
2023-01-11T13:36:24.100Z,1.67
2023-01-11T13:39:00.119Z,1.48
2023-01-11T13:41:34.300Z,1.65
2023-01-11T13:44:07.293Z,1.40
2023-01-11T13:46:48.585Z,1.52
2023-01-11T13:49:36.143Z,1.70
2023-01-11T13:52:11.089Z,1.50
2023-01-11T13:54:49.545Z,1.35
2023-01-11T13:57:26.757Z,1.60
2023-01-11T14:00:02.634Z,1.30
2023-01-11T14:02:44.796Z,1.90
2023-01-11T14:05:16.540Z,1.40
2023-01-11T14:08:00.530Z,1.50
2023-01-11T14:10:39.839Z,1.50
2023-01-11T14:13:41.379Z,1.13
2023-01-11T14:16:19.935Z,1.70
2023-01-11T14:18:55.257Z,1.33
2023-01-11T14:21:30.884Z,1.27
2023-01-11T14:23:59.652Z,1.48
2023-01-11T14:26:54.466Z,1.50
2023-01-11T14:29:40.771Z,1.70
2023-01-11T14:32:23.679Z,1.40
2023-01-11T14:35:28.131Z,1.50
2023-01-11T14:38:35.980Z,1.38
2023-01-11T14:41:40.405Z,1.63
2023-01-11T14:44:18.950Z,1.75
2023-01-11T14:47:12.003Z,1.67
2023-01-11T14:49:52.618Z,1.40
2023-01-11T14:52:38.936Z,1.35
2023-01-11T14:55:16.871Z,1.75
2023-01-11T14:57:45.453Z,1.70
2023-01-11T15:00:49.319Z,1.90
2023-01-11T15:03:46.996Z,1.88
2023-01-11T15:06:17.128Z,1.90
2023-01-11T15:08:48.063Z,1.95
2023-01-11T15:11:38.520Z,1.50
2023-01-11T15:14:23.368Z,1.75
2023-01-11T15:17:11.496Z,1.88
2023-01-11T15:19:44.351Z,1.75
2023-01-11T15:22:25.665Z,1.73
2023-01-11T15:24:59.743Z,2.13
2023-01-11T15:27:32.838Z,1.92
2023-01-11T15:30:01.298Z,1.90
2023-01-11T15:32:31.316Z,1.90
2023-01-11T15:35:32.902Z,1.85
2023-01-11T15:38:09.324Z,2.17
2023-01-11T15:40:41.222Z,1.80
2023-01-11T15:43:46.533Z,1.60
2023-01-11T15:46:56.303Z,1.70
2023-01-11T15:50:13.496Z,1.65
2023-01-11T15:53:33.161Z,1.40
2023-01-11T15:56:24.059Z,1.60
2023-01-11T15:59:10.988Z,1.73
2023-01-11T16:01:55.567Z,1.58
2023-01-11T16:04:30.193Z,1.50
2023-01-11T16:07:02.868Z,1.60
2023-01-11T16:10:02.260Z,1.40
2023-01-11T16:12:59.555Z,1.67
2023-01-11T16:15:39.340Z,2.20
2023-01-11T16:18:14.601Z,1.30
2023-01-11T16:20:45.112Z,1.60
2023-01-11T16:23:20.277Z,1.35
2023-01-11T16:25:56.193Z,1.50
2023-01-11T16:28:25.346Z,1.45
2023-01-11T16:30:57.725Z,1.38
2023-01-11T16:33:27.619Z,1.60
2023-01-11T16:36:13.060Z,1.30
2023-01-11T16:38:48.185Z,1.33
2023-01-11T16:41:17.996Z,1.58
2023-01-11T16:43:52.687Z,2.08
2023-01-11T16:47:06.891Z,1.58
2023-01-11T16:49:35.284Z,1.60
2023-01-11T16:52:45.345Z,2.00
2023-01-11T16:55:20.498Z,2.05
2023-01-11T16:57:54.093Z,1.92
2023-01-11T17:00:27.607Z,2.03
2023-01-11T17:03:05.717Z,2.00
2023-01-11T17:05:33.734Z,1.90
2023-01-11T17:08:01.652Z,2.00
2023-01-11T17:10:31.153Z,2.50
2023-01-11T17:13:48.162Z,1.73
2023-01-11T17:16:17.372Z,2.00
2023-01-11T17:18:45.695Z,2.33
2023-01-11T17:21:19.589Z,2.05
2023-01-11T17:23:49.842Z,2.67
2023-01-11T17:26:22.778Z,2.70
2023-01-11T17:28:55.954Z,2.13
2023-01-11T17:31:27.815Z,2.20
2023-01-11T17:34:04.666Z,2.20
2023-01-11T17:36:33.604Z,2.30
2023-01-11T17:39:01.990Z,2.35
2023-01-11T17:41:48.046Z,2.60
2023-01-11T17:44:37.829Z,3.03
2023-01-11T17:47:08.598Z,2.85
2023-01-11T17:49:38.797Z,2.60
2023-01-11T17:52:21.121Z,2.95
2023-01-11T17:55:00.201Z,3.20
2023-01-11T17:57:28.267Z,2.97
2023-01-11T18:00:19.848Z,3.30
2023-01-11T18:02:48.239Z,3.10
2023-01-11T18:05:19.062Z,3.00
2023-01-11T18:07:50.214Z,3.42
2023-01-11T18:10:20.724Z,3.53
2023-01-11T18:12:50.610Z,3.60
2023-01-11T18:15:26.006Z,3.67
2023-01-11T18:17:56.991Z,3.80
2023-01-11T18:20:37.781Z,3.72
2023-01-11T18:23:19.223Z,3.38
2023-01-11T18:25:47.500Z,3.40
2023-01-11T18:28:28.397Z,3.75
2023-01-11T18:31:01.712Z,3.70
2023-01-11T18:33:32.552Z,3.63
2023-01-11T18:36:03.140Z,3.55
2023-01-11T18:38:32.679Z,3.70
2023-01-11T18:41:23.415Z,3.70
2023-01-11T18:43:51.324Z,4.43
2023-01-11T18:46:20.754Z,3.67
2023-01-11T18:48:48.699Z,3.50
2023-01-11T18:51:19.213Z,3.88
2023-01-11T18:53:47.127Z,3.88
2023-01-11T18:56:16.379Z,3.85
2023-01-11T18:58:44.500Z,3.92
2023-01-11T19:01:12.933Z,4.03
2023-01-11T19:03:43.770Z,4.53
2023-01-11T19:06:14.185Z,4.45
2023-01-11T19:08:42.145Z,4.15
2023-01-11T19:11:10.018Z,4.20
2023-01-11T19:13:37.893Z,3.92
2023-01-11T19:16:06.650Z,4.45
2023-01-11T19:18:35.388Z,4.45
2023-01-11T19:21:06.617Z,4.60
2023-01-11T19:23:34.595Z,4.10
2023-01-11T19:26:02.509Z,4.38
2023-01-11T19:28:31.092Z,4.22
2023-01-11T19:30:59.307Z,4.53
2023-01-11T19:33:27.309Z,4.10
2023-01-11T19:35:55.242Z,4.63
2023-01-11T19:38:24.647Z,3.97
2023-01-11T19:40:52.601Z,4.45
2023-01-11T19:43:20.557Z,4.43
2023-01-11T19:45:56.325Z,3.85
2023-01-11T19:48:24.274Z,4.50
2023-01-11T19:50:52.583Z,4.35
2023-01-11T19:53:20.431Z,4.68
2023-01-11T19:55:49.809Z,5.25
2023-01-11T19:58:17.688Z,4.45
2023-01-11T20:00:45.619Z,4.72
2023-01-11T20:03:13.600Z,4.65
2023-01-11T20:05:41.466Z,4.70
2023-01-11T20:08:09.376Z,5.28
2023-01-11T20:10:37.251Z,4.45
2023-01-11T20:13:06.496Z,4.68
2023-01-11T20:15:34.425Z,4.13
2023-01-11T20:18:02.325Z,4.65
2023-01-11T20:20:30.175Z,4.20
2023-01-11T20:22:58.049Z,4.05
2023-01-11T20:25:25.957Z,5.13
2023-01-11T20:27:53.962Z,4.50
2023-01-11T20:30:23.175Z,4.40
2023-01-11T20:32:51.154Z,7.95
2023-01-11T20:35:19.195Z,4.40
2023-01-11T20:37:47.042Z,4.72
2023-01-11T20:40:14.922Z,4.60
2023-01-11T20:42:43.135Z,4.30
2023-01-11T20:45:12.049Z,4.00
2023-01-11T20:47:41.306Z,3.63
2023-01-11T20:50:10.249Z,3.90
2023-01-11T20:52:38.137Z,3.28
2023-01-11T20:55:06.970Z,3.70
2023-01-11T20:57:34.855Z,3.75
2023-01-11T21:00:02.823Z,3.50
2023-01-11T21:02:30.677Z,3.95
2023-01-11T21:04:59.920Z,3.63
2023-01-11T21:07:27.705Z,3.90
2023-01-11T21:09:55.544Z,4.78
2023-01-11T21:12:23.696Z,4.05
2023-01-11T21:14:51.601Z,3.45
2023-01-11T21:17:20.182Z,3.35
2023-01-11T21:19:47.983Z,3.38
2023-01-11T21:22:17.238Z,2.70
2023-01-11T21:24:45.194Z,3.40
2023-01-11T21:27:13.132Z,2.90
2023-01-11T21:29:41.066Z,3.25
2023-01-11T21:32:08.918Z,3.97
2023-01-11T21:34:36.778Z,3.92
2023-01-11T21:37:04.856Z,3.20
2023-01-11T21:39:34.228Z,3.70
2023-01-11T21:42:03.559Z,3.35
2023-01-11T21:44:33.668Z,3.70
2023-01-11T21:47:02.850Z,4.18
2023-01-11T21:49:31.051Z,3.97
2023-01-11T21:51:59.569Z,4.28
2023-01-11T21:54:27.509Z,3.97
2023-01-11T21:56:56.869Z,4.20
2023-01-11T21:59:24.953Z,4.70
2023-01-11T22:01:52.877Z,4.35
2023-01-11T22:04:22.240Z,4.57
2023-01-11T22:06:55.210Z,4.22
2023-01-11T22:09:26.263Z,5.57
2023-01-11T22:11:54.357Z,4.75
2023-01-11T22:14:23.765Z,4.30
2023-01-11T22:16:51.868Z,4.40
2023-01-11T22:19:20.403Z,4.85
2023-01-11T22:21:48.308Z,4.63
2023-01-11T22:24:17.443Z,4.88
2023-01-11T22:26:45.412Z,4.82
2023-01-11T22:29:14.961Z,5.38
2023-01-11T22:31:46.772Z,5.15
2023-01-11T22:34:15.580Z,5.05
2023-01-11T22:36:44.494Z,4.95
2023-01-11T22:39:13.514Z,4.93
2023-01-11T22:41:41.468Z,5.05
2023-01-11T22:44:10.403Z,4.63
2023-01-11T22:46:38.997Z,5.07
2023-01-11T22:49:09.227Z,5.07
2023-01-11T22:51:37.831Z,5.45
2023-01-11T22:54:06.234Z,5.28
2023-01-11T22:56:34.693Z,5.55
2023-01-11T22:59:02.935Z,5.80
2023-01-11T23:01:32.511Z,5.65
2023-01-11T23:04:01.283Z,5.32
2023-01-11T23:06:32.442Z,4.55
2023-01-11T23:09:00.779Z,4.47
2023-01-11T23:11:48.420Z,5.13
2023-01-11T23:14:18.186Z,4.90
2023-01-11T23:16:47.347Z,4.75
2023-01-11T23:19:18.435Z,4.93
2023-01-11T23:21:48.628Z,4.95
2023-01-11T23:24:17.728Z,4.82
2023-01-11T23:26:46.180Z,4.45
2023-01-11T23:29:14.367Z,4.57
2023-01-11T23:31:43.702Z,4.70
2023-01-11T23:34:13.115Z,5.72
2023-01-11T23:36:43.373Z,4.35
2023-01-11T23:39:15.189Z,4.28
2023-01-11T23:42:00.913Z,4.55
2023-01-11T23:44:28.747Z,4.45
2023-01-11T23:47:14.281Z,4.70
2023-01-11T23:49:43.225Z,4.28
2023-01-11T23:52:11.697Z,4.80
2023-01-11T23:54:41.244Z,5.55
2023-01-11T23:57:09.376Z,4.80
2023-01-11T23:59:37.267Z,4.95
